createdAt,value
2018-02-03T00:00:51.720Z,1001.18
2018-02-03T00:01:51.714Z,1001.21
2018-02-03T00:02:51.719Z,1001.14
2018-02-03T00:03:51.763Z,1001.21
2018-02-03T00:04:51.721Z,1001.17
2018-02-03T00:05:51.730Z,1001.15
2018-02-03T00:06:51.783Z,1001.13
2018-02-03T00:07:51.733Z,1001.15
2018-02-03T00:08:51.788Z,1001.13
2018-02-03T00:09:51.761Z,1001.09
2018-02-03T00:10:51.751Z,1001.13
2018-02-03T00:11:51.740Z,1001.05
2018-02-03T00:12:52.846Z,1001.09
2018-02-03T00:13:51.748Z,1001.11
2018-02-03T00:14:52.858Z,1001.10
2018-02-03T00:15:51.752Z,1001.07
2018-02-03T00:16:51.840Z,1001.09
2018-02-03T00:17:51.749Z,1001.03
2018-02-03T00:18:51.853Z,1001.07
2018-02-03T00:19:51.762Z,1001.02
2018-02-03T00:20:52.790Z,1001.07
2018-02-03T00:21:51.764Z,1000.99
2018-02-03T00:22:51.779Z,1000.98
2018-02-03T00:23:51.763Z,1000.98
2018-02-03T00:24:52.822Z,1000.95
2018-02-03T00:25:51.783Z,1000.98
2018-02-03T00:26:51.815Z,1000.95
2018-02-03T00:27:51.785Z,1000.98
2018-02-03T00:28:51.831Z,1000.99
2018-02-03T00:29:51.785Z,1000.98
2018-02-03T00:30:51.836Z,1000.96
2018-02-03T00:31:51.794Z,1000.95
2018-02-03T00:32:51.847Z,1000.95
2018-02-03T00:33:51.793Z,1000.94
2018-02-03T00:34:51.860Z,1000.93
2018-02-03T00:35:51.809Z,1000.92
2018-02-03T00:36:51.801Z,1000.90
2018-02-03T00:37:51.810Z,1000.92
2018-02-03T00:38:51.884Z,1001.00
2018-02-03T00:39:51.804Z,1000.97
2018-02-03T00:40:51.809Z,1001.02
2018-02-03T00:41:51.808Z,1001.05
2018-02-03T00:42:51.920Z,1001.04
2018-02-03T00:43:51.815Z,1001.08
2018-02-03T00:44:51.930Z,1001.10
2018-02-03T00:45:51.847Z,1001.13
2018-02-03T00:46:51.838Z,1001.08
2018-02-03T00:47:51.825Z,1001.12
2018-02-03T00:48:51.851Z,1001.09
2018-02-03T00:49:51.826Z,1001.10
2018-02-03T00:50:51.832Z,1001.09
2018-02-03T00:51:51.832Z,1001.10
2018-02-03T00:52:51.848Z,1001.10
2018-02-03T00:53:51.841Z,1001.12
2018-02-03T00:54:51.900Z,1001.05
2018-02-03T00:55:51.851Z,1001.09
2018-02-03T00:56:51.903Z,1001.05
2018-02-03T00:57:51.852Z,1001.05
2018-02-03T00:58:51.918Z,1001.03
2018-02-03T00:59:51.858Z,1001.03
2018-02-03T01:00:51.931Z,1001.05
2018-02-03T01:01:51.864Z,1001.08
2018-02-03T01:02:52.970Z,1001.07
2018-02-03T01:03:51.863Z,1001.04
2018-02-03T01:04:51.960Z,1001.01
2018-02-03T01:05:51.879Z,1001.07
2018-02-03T01:06:51.984Z,1001.09
2018-02-03T01:07:51.872Z,1001.07
2018-02-03T01:08:51.890Z,1001.16
2018-02-03T01:09:51.877Z,1001.14
2018-02-03T01:10:51.876Z,1001.16
2018-02-03T01:11:51.881Z,1001.16
2018-02-03T01:12:51.966Z,1001.19
2018-02-03T01:13:51.892Z,1001.18
2018-02-03T01:14:51.929Z,1001.18
2018-02-03T01:15:51.885Z,1001.16
2018-02-03T01:16:51.955Z,1001.14
2018-02-03T01:17:51.902Z,1001.12
2018-02-03T01:18:51.952Z,1001.18
2018-02-03T01:19:51.901Z,1001.15
2018-02-03T01:20:51.963Z,1001.17
2018-02-03T01:21:51.902Z,1001.21
2018-02-03T01:22:51.977Z,1001.16
2018-02-03T01:23:51.910Z,1001.26
2018-02-03T01:24:51.995Z,1001.17
2018-02-03T01:25:51.915Z,1001.19
2018-02-03T01:26:51.919Z,1001.25
2018-02-03T01:27:51.915Z,1001.20
2018-02-03T01:28:52.018Z,1001.24
2018-02-03T01:29:51.926Z,1001.21
2018-02-03T01:30:52.032Z,1001.23
2018-02-03T01:31:51.926Z,1001.22
2018-02-03T01:32:51.946Z,1001.25
2018-02-03T01:33:51.932Z,1001.21
2018-02-03T01:34:51.966Z,1001.21
2018-02-03T01:35:51.938Z,1001.22
2018-02-03T01:36:51.984Z,1001.24
2018-02-03T01:37:51.943Z,1001.23
2018-02-03T01:38:51.994Z,1001.16
2018-02-03T01:39:51.957Z,1001.16
2018-02-03T01:40:52.022Z,1001.17
2018-02-03T01:41:51.948Z,1001.18
2018-02-03T01:42:52.033Z,1001.24
2018-02-03T01:43:51.956Z,1001.21
2018-02-03T01:44:52.044Z,1001.20
2018-02-03T01:45:51.957Z,1001.18
2018-02-03T01:46:53.985Z,1001.18
2018-02-03T01:47:51.971Z,1001.26
2018-02-03T01:48:52.072Z,1001.20
2018-02-03T01:49:51.969Z,1001.26
2018-02-03T01:50:51.982Z,1001.30
2018-02-03T01:51:52.096Z,1001.25
2018-02-03T01:52:51.977Z,1001.25
2018-02-03T01:53:52.104Z,1001.27
2018-02-03T01:54:51.975Z,1001.27
2018-02-03T01:55:52.023Z,1001.24
2018-02-03T01:56:51.985Z,1001.25
2018-02-03T01:57:52.062Z,1001.22
2018-02-03T01:58:52.002Z,1001.18
2018-02-03T01:59:53.069Z,1001.16
2018-02-03T02:00:52.004Z,1001.16
2018-02-03T02:01:52.002Z,1001.22
2018-02-03T02:02:52.007Z,1001.19
2018-02-03T02:03:52.012Z,1001.17
2018-02-03T02:04:52.003Z,1001.18
2018-02-03T02:05:53.101Z,1001.20
2018-02-03T02:06:52.008Z,1001.20
2018-02-03T02:07:52.091Z,1001.22
2018-02-03T02:08:52.012Z,1001.30
2018-02-03T02:09:52.116Z,1001.32
2018-02-03T02:10:52.029Z,1001.37
2018-02-03T02:11:52.121Z,1001.37
2018-02-03T02:12:52.024Z,1001.37
2018-02-03T02:13:52.136Z,1001.36
2018-02-03T02:14:52.045Z,1001.35
2018-02-03T02:15:52.047Z,1001.33
2018-02-03T02:16:52.048Z,1001.35
2018-02-03T02:17:52.026Z,1001.34
2018-02-03T02:18:52.078Z,1001.32
2018-02-03T02:19:52.036Z,1001.29
2018-02-03T02:20:52.082Z,1001.28
2018-02-03T02:21:52.041Z,1001.26
2018-02-03T02:22:52.040Z,1001.26
2018-02-03T02:23:52.095Z,1001.28
2018-02-03T02:24:52.056Z,1001.32
2018-02-03T02:25:52.067Z,1001.29
2018-02-03T02:26:52.127Z,1001.33
2018-02-03T02:27:52.051Z,1001.32
2018-02-03T02:28:52.142Z,1001.32
2018-02-03T02:29:52.062Z,1001.30
2018-02-03T02:30:52.147Z,1001.30
2018-02-03T02:31:52.059Z,1001.33
2018-02-03T02:32:52.162Z,1001.33
2018-02-03T02:33:52.071Z,1001.31
2018-02-03T02:34:52.175Z,1001.27
2018-02-03T02:35:52.077Z,1001.24
2018-02-03T02:36:52.182Z,1001.24
2018-02-03T02:37:52.079Z,1001.25
2018-02-03T02:38:52.191Z,1001.31
2018-02-03T02:39:52.086Z,1001.26
2018-02-03T02:40:53.130Z,1001.23
2018-02-03T02:41:52.080Z,1001.24
2018-02-03T02:42:52.115Z,1001.26
2018-02-03T02:43:52.094Z,1001.25
2018-02-03T02:44:52.141Z,1001.27
2018-02-03T02:45:52.103Z,1001.22
2018-02-03T02:46:52.142Z,1001.23
2018-02-03T02:47:52.101Z,1001.20
2018-02-03T02:48:52.158Z,1001.22
2018-02-03T02:49:52.115Z,1001.21
2018-02-03T02:50:53.200Z,1001.20
2018-02-03T02:51:52.114Z,1001.31
2018-02-03T02:52:52.189Z,1001.29
2018-02-03T02:53:52.117Z,1001.31
2018-02-03T02:54:52.120Z,1001.31
2018-02-03T02:55:52.210Z,1001.31
2018-02-03T02:56:52.120Z,1001.28
2018-02-03T02:57:52.136Z,1001.28
2018-02-03T02:58:52.232Z,1001.28
2018-02-03T02:59:52.129Z,1001.28
2018-02-03T03:00:52.129Z,1001.28
2018-02-03T03:01:52.143Z,1001.24
2018-02-03T03:02:52.137Z,1001.25
2018-02-03T03:03:52.162Z,1001.27
2018-02-03T03:04:52.135Z,1001.24
2018-02-03T03:05:52.136Z,1001.22
2018-02-03T03:06:52.143Z,1001.22
2018-02-03T03:07:52.187Z,1001.22
2018-02-03T03:08:52.146Z,1001.23
2018-02-03T03:09:52.196Z,1001.23
2018-02-03T03:10:52.190Z,1001.21
2018-02-03T03:11:52.215Z,1001.21
2018-02-03T03:12:52.159Z,1001.24
2018-02-03T03:13:52.229Z,1001.24
2018-02-03T03:14:52.166Z,1001.21
2018-02-03T03:15:52.249Z,1001.21
2018-02-03T03:16:52.195Z,1001.19
2018-02-03T03:17:56.965Z,1001.23
2018-02-03T03:18:52.166Z,1001.24
2018-02-03T03:19:52.181Z,1001.24
2018-02-03T03:20:52.175Z,1001.22
2018-02-03T03:21:52.173Z,1001.21
2018-02-03T03:22:52.175Z,1001.21
2018-02-03T03:23:53.216Z,1001.21
2018-02-03T03:24:52.182Z,1001.15
2018-02-03T03:25:52.206Z,1001.18
2018-02-03T03:26:52.192Z,1001.22
2018-02-03T03:27:53.246Z,1001.21
2018-02-03T03:28:52.183Z,1001.23
2018-02-03T03:29:52.194Z,1001.21
2018-02-03T03:30:52.189Z,1001.16
2018-02-03T03:31:52.245Z,1001.20
2018-02-03T03:32:52.203Z,1001.17
2018-02-03T03:33:52.264Z,1001.14
2018-02-03T03:34:52.203Z,1001.07
2018-02-03T03:35:52.212Z,1001.08
2018-02-03T03:36:52.203Z,1001.02
2018-02-03T03:37:52.286Z,1001.00
2018-02-03T03:38:52.207Z,1000.98
2018-02-03T03:39:52.361Z,1000.95
2018-02-03T03:40:52.211Z,1001.02
2018-02-03T03:41:52.315Z,1001.04
2018-02-03T03:42:52.216Z,1001.08
2018-02-03T03:43:52.325Z,1001.05
2018-02-03T03:44:52.235Z,1001.14
2018-02-03T03:45:52.236Z,1001.11
2018-02-03T03:46:52.229Z,1001.12
2018-02-03T03:47:52.252Z,1001.18
2018-02-03T03:48:52.241Z,1001.18
2018-02-03T03:49:52.302Z,1001.27
2018-02-03T03:50:52.233Z,1001.22
2018-02-03T03:51:52.279Z,1001.21
2018-02-03T03:52:52.241Z,1001.20
2018-02-03T03:53:52.325Z,1001.24
2018-02-03T03:54:52.241Z,1001.25
2018-02-03T03:55:52.308Z,1001.15
2018-02-03T03:56:52.245Z,1001.17
2018-02-03T03:57:52.248Z,1001.17
2018-02-03T03:58:52.323Z,1001.16
2018-02-03T03:59:52.262Z,1001.14
2018-02-03T04:00:52.258Z,1001.22
2018-02-03T04:01:52.261Z,1001.22
2018-02-03T04:02:52.354Z,1001.14
2018-02-03T04:03:52.262Z,1001.12
2018-02-03T04:04:52.267Z,1001.21
2018-02-03T04:05:52.387Z,1001.14
2018-02-03T04:06:52.270Z,1001.10
2018-02-03T04:07:52.284Z,1001.15
2018-02-03T04:08:52.269Z,1001.01
2018-02-03T04:09:52.422Z,1001.01
2018-02-03T04:10:52.282Z,1000.99
2018-02-03T04:11:52.340Z,1001.02
2018-02-03T04:12:52.284Z,1000.98
2018-02-03T04:13:54.400Z,1001.01
2018-02-03T04:14:52.301Z,1001.00
2018-02-03T04:15:53.407Z,1000.94
2018-02-03T04:16:52.290Z,1000.92
2018-02-03T04:17:53.389Z,1001.00
2018-02-03T04:18:52.349Z,1000.99
2018-02-03T04:19:52.373Z,1001.02
2018-02-03T04:20:52.338Z,1000.95
2018-02-03T04:21:52.385Z,1001.00
2018-02-03T04:22:52.309Z,1000.93
2018-02-03T04:23:52.308Z,1000.92
2018-02-03T04:24:52.329Z,1000.88
2018-02-03T04:25:52.421Z,1000.87
2018-02-03T04:26:52.321Z,1000.82
2018-02-03T04:27:52.430Z,1000.78
2018-02-03T04:28:52.312Z,1000.84
2018-02-03T04:29:52.344Z,1000.87
2018-02-03T04:30:52.316Z,1000.91
2018-02-03T04:31:52.354Z,1000.91
2018-02-03T04:32:52.322Z,1000.90
2018-02-03T04:33:53.394Z,1000.97
2018-02-03T04:34:52.332Z,1000.98
2018-02-03T04:35:52.330Z,1000.93
2018-02-03T04:36:52.387Z,1000.94
2018-02-03T04:37:52.331Z,1000.93
2018-02-03T04:38:52.399Z,1000.92
2018-02-03T04:39:52.356Z,1000.88
2018-02-03T04:40:52.412Z,1000.93
2018-02-03T04:41:52.337Z,1000.92
2018-02-03T04:42:53.451Z,1000.91
2018-02-03T04:43:52.345Z,1000.90
2018-02-03T04:44:52.352Z,1000.92
2018-02-03T04:45:53.367Z,1000.89
2018-02-03T04:46:52.394Z,1000.90
2018-02-03T04:47:52.353Z,1000.92
2018-02-03T04:48:52.412Z,1000.99
2018-02-03T04:49:52.376Z,1000.95
2018-02-03T04:50:52.365Z,1000.93
2018-02-03T04:51:52.434Z,1000.92
2018-02-03T04:52:52.364Z,1000.85
2018-02-03T04:53:52.447Z,1000.84
2018-02-03T04:54:52.372Z,1000.85
2018-02-03T04:55:52.456Z,1000.83
2018-02-03T04:56:52.368Z,1000.88
2018-02-03T04:57:52.392Z,1000.83
2018-02-03T04:58:52.377Z,1000.92
2018-02-03T04:59:52.495Z,1000.82
2018-02-03T05:00:52.393Z,1000.82
2018-02-03T05:01:52.416Z,1000.81
2018-02-03T05:02:52.391Z,1000.76
2018-02-03T05:03:52.411Z,1000.75
2018-02-03T05:04:52.390Z,1000.69
2018-02-03T05:05:52.422Z,1000.70
2018-02-03T05:06:52.400Z,1000.69
2018-02-03T05:07:52.441Z,1000.68
2018-02-03T05:08:52.397Z,1000.68
2018-02-03T05:09:52.454Z,1000.70
2018-02-03T05:10:52.405Z,1000.67
2018-02-03T05:11:52.464Z,1000.66
2018-02-03T05:12:52.404Z,1000.69
2018-02-03T05:13:52.481Z,1000.67
2018-02-03T05:14:52.418Z,1000.69
2018-02-03T05:15:52.492Z,1000.67
2018-02-03T05:16:52.411Z,1000.66
2018-02-03T05:17:52.511Z,1000.71
2018-02-03T05:18:52.420Z,1000.70
2018-02-03T05:19:52.523Z,1000.68
2018-02-03T05:20:52.424Z,1000.68
2018-02-03T05:21:52.538Z,1000.72
2018-02-03T05:22:52.425Z,1000.63
2018-02-03T05:23:52.446Z,1000.62
2018-02-03T05:24:52.423Z,1000.62
2018-02-03T05:25:52.457Z,1000.67
2018-02-03T05:26:52.430Z,1000.61
2018-02-03T05:27:52.533Z,1000.62
2018-02-03T05:28:52.437Z,1000.61
2018-02-03T05:29:52.486Z,1000.61
2018-02-03T05:30:52.451Z,1000.65
2018-02-03T05:31:52.444Z,1000.75
2018-02-03T05:32:52.449Z,1000.67
2018-02-03T05:33:52.518Z,1000.65
2018-02-03T05:34:52.478Z,1000.72
2018-02-03T05:35:52.542Z,1000.70
2018-02-03T05:36:52.451Z,1000.73
2018-02-03T05:37:52.545Z,1000.64
2018-02-03T05:38:52.460Z,1000.66
2018-02-03T05:39:52.561Z,1000.68
2018-02-03T05:40:52.462Z,1000.59
2018-02-03T05:41:52.571Z,1000.61
2018-02-03T05:42:52.463Z,1000.59
2018-02-03T05:43:52.490Z,1000.61
2018-02-03T05:44:52.477Z,1000.59
2018-02-03T05:45:53.538Z,1000.60
2018-02-03T05:46:52.479Z,1000.57
2018-02-03T05:47:52.509Z,1000.62
2018-02-03T05:48:52.469Z,1000.58
2018-02-03T05:49:52.528Z,1000.55
2018-02-03T05:50:52.480Z,1000.58
2018-02-03T05:51:52.540Z,1000.56
2018-02-03T05:52:52.490Z,1000.49
2018-02-03T05:53:52.487Z,1000.51
2018-02-03T05:54:52.568Z,1000.51
2018-02-03T05:55:52.493Z,1000.54
2018-02-03T05:56:52.568Z,1000.50
2018-02-03T05:57:52.496Z,1000.48
2018-02-03T05:58:52.500Z,1000.44
2018-02-03T05:59:52.588Z,1000.42
2018-02-03T06:00:52.503Z,1000.44
2018-02-03T06:01:52.600Z,1000.50
2018-02-03T06:02:52.507Z,1000.46
2018-02-03T06:03:52.621Z,1000.45
2018-02-03T06:04:52.501Z,1000.47
2018-02-03T06:05:52.524Z,1000.40
2018-02-03T06:06:52.519Z,1000.40
2018-02-03T06:07:52.540Z,1000.39
2018-02-03T06:08:52.524Z,1000.41
2018-02-03T06:09:52.554Z,1000.41
2018-02-03T06:10:52.525Z,1000.40
2018-02-03T06:11:52.591Z,1000.38
2018-02-03T06:12:52.528Z,1000.47
2018-02-03T06:13:52.528Z,1000.40
2018-02-03T06:14:52.527Z,1000.44
2018-02-03T06:15:52.602Z,1000.47
2018-02-03T06:16:52.535Z,1000.41
2018-02-03T06:17:52.606Z,1000.44
2018-02-03T06:18:52.540Z,1000.51
2018-02-03T06:19:52.672Z,1000.50
2018-02-03T06:20:52.541Z,1000.50
2018-02-03T06:21:52.539Z,1000.55
2018-02-03T06:22:52.549Z,1000.52
2018-02-03T06:23:52.664Z,1000.55
2018-02-03T06:24:52.555Z,1000.51
2018-02-03T06:25:52.552Z,1000.49
2018-02-03T06:26:52.571Z,1000.49
2018-02-03T06:27:52.582Z,1000.49
2018-02-03T06:28:52.587Z,1000.47
2018-02-03T06:29:52.554Z,1000.50
2018-02-03T06:30:52.606Z,1000.55
2018-02-03T06:31:52.562Z,1000.51
2018-02-03T06:32:52.616Z,1000.52
2018-02-03T06:33:52.571Z,1000.53
2018-02-03T06:34:52.625Z,1000.51
2018-02-03T06:35:52.568Z,1000.52
2018-02-03T06:36:52.651Z,1000.52
2018-02-03T06:37:52.573Z,1000.50
2018-02-03T06:38:52.660Z,1000.52
2018-02-03T06:39:52.577Z,1000.47
2018-02-03T06:40:52.667Z,1000.46
2018-02-03T06:41:52.584Z,1000.50
2018-02-03T06:42:52.586Z,1000.48
2018-02-03T06:43:52.692Z,1000.50
2018-02-03T06:44:52.598Z,1000.55
2018-02-03T06:45:52.763Z,1000.48
2018-02-03T06:46:52.584Z,1000.50
2018-02-03T06:47:52.629Z,1000.46
2018-02-03T06:48:52.606Z,1000.50
2018-02-03T06:49:52.630Z,1000.50
2018-02-03T06:50:52.604Z,1000.42
2018-02-03T06:51:52.648Z,1000.44
2018-02-03T06:52:52.600Z,1000.49
2018-02-03T06:53:52.648Z,1000.47
2018-02-03T06:54:52.612Z,1000.44
2018-02-03T06:55:52.619Z,1000.44
2018-02-03T06:56:52.606Z,1000.45
2018-02-03T06:57:52.683Z,1000.45
2018-02-03T06:58:52.612Z,1000.49
2018-02-03T06:59:52.734Z,1000.49
2018-02-03T07:00:52.617Z,1000.49
2018-02-03T07:01:52.704Z,1000.50
2018-02-03T07:02:52.620Z,1000.49
2018-02-03T07:03:52.715Z,1000.48
2018-02-03T07:04:52.627Z,1000.57
2018-02-03T07:05:52.751Z,1000.53
2018-02-03T07:06:52.634Z,1000.53
2018-02-03T07:07:52.753Z,1000.54
2018-02-03T07:08:52.629Z,1000.51
2018-02-03T07:09:52.660Z,1000.51
2018-02-03T07:10:52.636Z,1000.52
2018-02-03T07:11:52.689Z,1000.57
2018-02-03T07:12:52.637Z,1000.52
2018-02-03T07:13:52.689Z,1000.57
2018-02-03T07:14:52.647Z,1000.54
2018-02-03T07:15:54.752Z,1000.57
2018-02-03T07:16:52.653Z,1000.57
2018-02-03T07:17:52.743Z,1000.57
2018-02-03T07:18:52.649Z,1000.52
2018-02-03T07:19:52.727Z,1000.52
2018-02-03T07:20:52.652Z,1000.53
2018-02-03T07:21:52.655Z,1000.53
2018-02-03T07:22:52.747Z,1000.54
2018-02-03T07:23:52.667Z,1000.55
2018-02-03T07:24:52.757Z,1000.55
2018-02-03T07:25:52.673Z,1000.53
2018-02-03T07:26:52.779Z,1000.52
2018-02-03T07:27:52.677Z,1000.56
2018-02-03T07:28:52.681Z,1000.53
2018-02-03T07:29:52.676Z,1000.47
2018-02-03T07:30:52.696Z,1000.50
2018-02-03T07:31:52.690Z,1000.51
2018-02-03T07:32:52.712Z,1000.47
2018-02-03T07:33:52.674Z,1000.50
2018-02-03T07:34:52.724Z,1000.52
2018-02-03T07:35:52.686Z,1000.52
2018-02-03T07:36:52.740Z,1000.52
2018-02-03T07:37:52.685Z,1000.52
2018-02-03T07:38:52.748Z,1000.60
2018-02-03T07:39:52.689Z,1000.56
2018-02-03T07:40:52.784Z,1000.53
2018-02-03T07:41:52.700Z,1000.57
2018-02-03T07:42:53.811Z,1000.56
2018-02-03T07:43:52.694Z,1000.58
2018-02-03T07:44:52.818Z,1000.54
2018-02-03T07:45:52.705Z,1000.52
2018-02-03T07:46:52.809Z,1000.57
2018-02-03T07:47:52.741Z,1000.57
2018-02-03T07:48:52.835Z,1000.58
2018-02-03T07:49:52.724Z,1000.57
2018-02-03T07:50:52.732Z,1000.55
2018-02-03T07:51:52.710Z,1000.59
2018-02-03T07:52:52.716Z,1000.56
2018-02-03T07:53:52.754Z,1000.60
2018-02-03T07:54:52.718Z,1000.53
2018-02-03T07:55:52.765Z,1000.58
2018-02-03T07:56:52.725Z,1000.52
2018-02-03T07:57:53.813Z,1000.51
2018-02-03T07:58:52.732Z,1000.56
2018-02-03T07:59:52.736Z,1000.51
2018-02-03T08:00:53.830Z,1000.47
2018-02-03T08:01:52.733Z,1000.53
2018-02-03T08:02:52.809Z,1000.52
2018-02-03T08:03:52.746Z,1000.50
2018-02-03T08:04:53.854Z,1000.49
2018-02-03T08:05:52.739Z,1000.55
2018-02-03T08:06:52.849Z,1000.48
2018-02-03T08:07:52.771Z,1000.52
2018-02-03T08:08:52.755Z,1000.51
2018-02-03T08:09:52.767Z,1000.49
2018-02-03T08:10:52.771Z,1000.49
2018-02-03T08:11:52.758Z,1000.45
2018-02-03T08:12:52.784Z,1000.44
2018-02-03T08:13:52.749Z,1000.45
2018-02-03T08:14:52.864Z,1000.43
2018-02-03T08:15:52.766Z,1000.46
2018-02-03T08:16:52.770Z,1000.40
2018-02-03T08:17:52.781Z,1000.42
2018-02-03T08:18:52.780Z,1000.46
2018-02-03T08:19:52.796Z,1000.40
2018-02-03T08:20:52.765Z,1000.40
2018-02-03T08:21:52.830Z,1000.39
2018-02-03T08:22:52.777Z,1000.35
2018-02-03T08:23:52.917Z,1000.41
2018-02-03T08:24:52.806Z,1000.39
2018-02-03T08:25:52.833Z,1000.42
2018-02-03T08:26:52.799Z,1000.39
2018-02-03T08:27:52.853Z,1000.37
2018-02-03T08:28:52.838Z,1000.36
2018-02-03T08:29:52.879Z,1000.34
2018-02-03T08:30:52.794Z,1000.36
2018-02-03T08:31:52.912Z,1000.28
2018-02-03T08:32:52.793Z,1000.31
2018-02-03T08:33:52.912Z,1000.36
2018-02-03T08:34:52.794Z,1000.27
2018-02-03T08:35:52.908Z,1000.29
2018-02-03T08:36:52.845Z,1000.28
2018-02-03T08:37:52.806Z,1000.26
2018-02-03T08:38:52.925Z,1000.27
2018-02-03T08:39:52.807Z,1000.35
2018-02-03T08:40:53.856Z,1000.31
2018-02-03T08:41:52.810Z,1000.31
2018-02-03T08:42:52.872Z,1000.30
2018-02-03T08:43:52.814Z,1000.29
2018-02-03T08:44:52.899Z,1000.29
2018-02-03T08:45:52.819Z,1000.30
2018-02-03T08:46:52.880Z,1000.28
2018-02-03T08:47:52.840Z,1000.33
2018-02-03T08:48:52.960Z,1000.26
2018-02-03T08:49:52.819Z,1000.23
2018-02-03T08:50:52.902Z,1000.24
2018-02-03T08:51:52.824Z,1000.23
2018-02-03T08:52:53.937Z,1000.19
2018-02-03T08:53:52.882Z,1000.21
2018-02-03T08:54:52.940Z,1000.24
2018-02-03T08:55:52.842Z,1000.19
2018-02-03T08:56:52.957Z,1000.15
2018-02-03T08:57:52.841Z,1000.21
2018-02-03T08:58:52.855Z,1000.17
2018-02-03T08:59:52.862Z,1000.20
2018-02-03T09:00:52.879Z,1000.20
2018-02-03T09:01:52.855Z,1000.19
2018-02-03T09:02:52.890Z,1000.24
2018-02-03T09:03:52.843Z,1000.26
2018-02-03T09:04:52.905Z,1000.21
2018-02-03T09:05:52.852Z,1000.24
2018-02-03T09:06:52.910Z,1000.20
2018-02-03T09:07:52.853Z,1000.17
2018-02-03T09:08:52.928Z,1000.22
2018-02-03T09:09:52.890Z,1000.18
2018-02-03T09:10:52.938Z,1000.20
2018-02-03T09:11:52.906Z,1000.20
2018-02-03T09:12:52.990Z,1000.23
2018-02-03T09:13:52.899Z,1000.18
2018-02-03T09:14:52.986Z,1000.14
2018-02-03T09:15:52.870Z,1000.22
2018-02-03T09:16:52.981Z,1000.19
2018-02-03T09:17:52.865Z,1000.13
2018-02-03T09:18:52.895Z,1000.13
2018-02-03T09:19:52.876Z,1000.14
2018-02-03T09:20:52.920Z,1000.15
2018-02-03T09:21:52.880Z,1000.15
2018-02-03T09:22:52.921Z,1000.11
2018-02-03T09:23:52.880Z,1000.15
2018-02-03T09:24:52.986Z,1000.19
2018-02-03T09:25:52.946Z,1000.18
2018-02-03T09:26:52.944Z,1000.13
2018-02-03T09:27:52.886Z,1000.18
2018-02-03T09:28:53.993Z,1000.17
2018-02-03T09:29:52.900Z,1000.20
2018-02-03T09:30:52.990Z,1000.22
2018-02-03T09:31:52.895Z,1000.19
2018-02-03T09:32:52.992Z,1000.11
2018-02-03T09:33:52.899Z,1000.18
2018-02-03T09:34:53.005Z,1000.12
2018-02-03T09:35:52.949Z,1000.11
2018-02-03T09:36:53.039Z,1000.11
2018-02-03T09:37:52.965Z,1000.12
2018-02-03T09:38:53.026Z,1000.13
2018-02-03T09:39:52.916Z,1000.13
2018-02-03T09:40:52.933Z,1000.14
2018-02-03T09:41:52.972Z,1000.13
2018-02-03T09:42:52.914Z,1000.14
2018-02-03T09:43:52.961Z,1000.09
2018-02-03T09:44:52.924Z,1000.08
2018-02-03T09:45:53.098Z,1000.12
2018-02-03T09:46:52.946Z,1000.11
2018-02-03T09:47:53.034Z,1000.07
2018-02-03T09:48:52.924Z,1000.09
2018-02-03T09:49:52.997Z,1000.14
2018-02-03T09:50:52.964Z,1000.12
2018-02-03T09:51:53.008Z,1000.18
2018-02-03T09:52:52.937Z,1000.15
2018-02-03T09:53:52.943Z,1000.13
2018-02-03T09:54:53.019Z,1000.13
2018-02-03T09:55:53.048Z,1000.15
2018-02-03T09:56:52.947Z,1000.18
2018-02-03T09:57:53.054Z,1000.16
2018-02-03T09:58:52.964Z,1000.15
2018-02-03T09:59:53.084Z,1000.10
2018-02-03T10:00:52.956Z,1000.16
2018-02-03T10:01:52.997Z,1000.18
2018-02-03T10:02:52.965Z,1000.23
2018-02-03T10:03:52.990Z,1000.20
2018-02-03T10:04:52.969Z,1000.19
2018-02-03T10:05:53.044Z,1000.22
2018-02-03T10:06:53.008Z,1000.19
2018-02-03T10:07:53.031Z,1000.21
2018-02-03T10:08:52.973Z,1000.23
2018-02-03T10:09:53.052Z,1000.22
2018-02-03T10:10:52.995Z,1000.20
2018-02-03T10:11:52.983Z,1000.18
2018-02-03T10:12:53.048Z,1000.23
2018-02-03T10:13:52.984Z,1000.24
2018-02-03T10:14:53.068Z,1000.27
2018-02-03T10:15:53.024Z,1000.28
2018-02-03T10:16:52.990Z,1000.29
2018-02-03T10:17:53.113Z,1000.25
2018-02-03T10:18:53.003Z,1000.24
2018-02-03T10:19:53.112Z,1000.20
2018-02-03T10:20:53.005Z,1000.18
2018-02-03T10:21:53.002Z,1000.24
2018-02-03T10:22:53.021Z,1000.21
2018-02-03T10:23:53.041Z,1000.22
2018-02-03T10:24:53.038Z,1000.25
2018-02-03T10:25:53.043Z,1000.14
2018-02-03T10:26:53.048Z,1000.12
2018-02-03T10:27:53.011Z,1000.13
2018-02-03T10:28:53.016Z,1000.16
2018-02-03T10:29:53.019Z,1000.14
2018-02-03T10:30:53.031Z,1000.12
2018-02-03T10:31:53.101Z,1000.14
2018-02-03T10:32:53.038Z,1000.12
2018-02-03T10:33:53.104Z,1000.16
2018-02-03T10:34:53.036Z,1000.16
2018-02-03T10:35:53.062Z,1000.19
2018-02-03T10:36:53.055Z,1000.13
2018-02-03T10:37:53.055Z,1000.14
2018-02-03T10:38:53.162Z,1000.12
2018-02-03T10:39:53.037Z,1000.15
2018-02-03T10:40:53.045Z,1000.15
2018-02-03T10:41:53.048Z,1000.15
2018-02-03T10:42:53.059Z,1000.14
2018-02-03T10:43:53.063Z,1000.14
2018-02-03T10:44:53.078Z,1000.12
2018-02-03T10:45:53.075Z,1000.17
2018-02-03T10:46:53.061Z,1000.17
2018-02-03T10:47:53.077Z,1000.10
2018-02-03T10:48:53.062Z,1000.10
2018-02-03T10:49:53.106Z,1000.06
2018-02-03T10:50:53.114Z,1000.08
2018-02-03T10:51:53.105Z,1000.05
2018-02-03T10:52:53.070Z,1000.04
2018-02-03T10:53:53.091Z,1000.00
2018-02-03T10:54:53.080Z,999.99
2018-02-03T10:55:53.122Z,999.98
2018-02-03T10:56:53.084Z,999.99
2018-02-03T10:57:53.103Z,999.98
2018-02-03T10:58:53.091Z,999.95
2018-02-03T10:59:53.143Z,999.97
2018-02-03T11:00:53.185Z,999.97
2018-02-03T11:01:53.096Z,999.98
2018-02-03T11:02:53.106Z,999.95
2018-02-03T11:03:53.139Z,999.91
2018-02-03T11:04:53.107Z,999.95
2018-02-03T11:05:53.103Z,999.93
2018-02-03T11:06:53.111Z,999.92
2018-02-03T11:07:53.108Z,999.91
2018-02-03T11:08:53.260Z,999.97
2018-02-03T11:09:53.126Z,999.97
2018-02-03T11:10:53.124Z,999.95
2018-02-03T11:11:53.133Z,999.88
2018-02-03T11:12:53.230Z,999.93
2018-02-03T11:13:53.157Z,999.93
2018-02-03T11:14:54.163Z,999.96
2018-02-03T11:15:53.148Z,999.92
2018-02-03T11:16:54.192Z,999.90
2018-02-03T11:17:53.242Z,999.88
2018-02-03T11:18:53.156Z,999.88
2018-02-03T11:19:53.139Z,999.93
2018-02-03T11:20:53.177Z,999.90
2018-02-03T11:21:53.198Z,999.88
2018-02-03T11:22:54.237Z,999.91
2018-02-03T11:23:53.167Z,999.88
2018-02-03T11:24:53.196Z,999.87
2018-02-03T11:25:53.164Z,999.81
2018-02-03T11:26:53.215Z,999.82
2018-02-03T11:27:53.176Z,999.77
2018-02-03T11:28:53.242Z,999.88
2018-02-03T11:29:53.188Z,999.84
2018-02-03T11:30:53.340Z,999.78
2018-02-03T11:31:53.179Z,999.75
2018-02-03T11:32:53.229Z,999.79
2018-02-03T11:33:53.193Z,999.77
2018-02-03T11:34:53.199Z,999.78
2018-02-03T11:35:53.186Z,999.77
2018-02-03T11:36:53.253Z,999.76
2018-02-03T11:37:53.194Z,999.79
2018-02-03T11:38:53.263Z,999.71
2018-02-03T11:39:53.222Z,999.77
2018-02-03T11:40:53.316Z,999.73
2018-02-03T11:41:53.223Z,999.79
2018-02-03T11:42:53.298Z,999.70
2018-02-03T11:43:53.212Z,999.69
2018-02-03T11:44:53.302Z,999.70
2018-02-03T11:45:53.250Z,999.65
2018-02-03T11:46:53.214Z,999.70
2018-02-03T11:47:53.324Z,999.68
2018-02-03T11:48:53.222Z,999.66
2018-02-03T11:49:53.342Z,999.70
2018-02-03T11:50:53.235Z,999.65
2018-02-03T11:51:53.251Z,999.61
2018-02-03T11:52:53.239Z,999.63
2018-02-03T11:53:54.291Z,999.65
2018-02-03T11:54:53.239Z,999.62
2018-02-03T11:55:53.251Z,999.60
2018-02-03T11:56:53.288Z,999.62
2018-02-03T11:57:53.261Z,999.67
2018-02-03T11:58:53.304Z,999.62
2018-02-03T11:59:53.256Z,999.63
2018-02-03T12:00:53.321Z,999.57
2018-02-03T12:01:53.266Z,999.55
2018-02-03T12:02:53.298Z,999.58
2018-02-03T12:03:53.329Z,999.62
2018-02-03T12:04:53.279Z,999.62
2018-02-03T12:05:53.394Z,999.61
2018-02-03T12:06:53.282Z,999.58
2018-02-03T12:07:53.359Z,999.54
2018-02-03T12:08:53.277Z,999.55